Time;durP1;ratioP1;P1;durP2;ratioP2;P2;SDS_P1;SDS_P2;PMS_P1;PMS_P2;Temp;Humidity;BMP_temperature;BMP_pressure;BME280_temperature;BME280_humidity;BME280_pressure;Samples;Min_cycle;Max_cycle;Signal;HPM_P1;HPM_P2
2023/08/31 00:00:18;;;;;;;16.25;14.45;;;22.40;99.90;;;;;;5267953;28;20039;-74
2023/08/31 00:02:49;;;;;;;16.25;13.90;;;22.40;99.90;;;;;;5267778;28;20732;-75
2023/08/31 00:05:20;;;;;;;16.45;14.18;;;22.30;99.90;;;;;;5268176;28;20075;-74
2023/08/31 00:07:50;;;;;;;16.58;14.27;;;22.30;99.90;;;;;;5268147;28;20020;-74
2023/08/31 00:10:21;;;;;;;17.58;15.05;;;22.10;99.90;;;;;;5251988;28;20045;-75
2023/08/31 00:12:52;;;;;;;16.50;14.80;;;22.20;99.90;;;;;;5272114;28;20028;-72
2023/08/31 00:15:23;;;;;;;17.05;15.23;;;22.10;99.90;;;;;;5271934;28;20122;-74
2023/08/31 00:17:55;;;;;;;19.38;17.00;;;22.00;99.90;;;;;;5271409;28;20020;-72
2023/08/31 00:20:26;;;;;;;24.77;16.17;;;22.00;99.90;;;;;;5270544;28;20060;-73
2023/08/31 00:22:58;;;;;;;17.00;15.32;;;22.10;99.90;;;;;;5270651;28;20082;-72
2023/08/31 00:25:29;;;;;;;16.83;15.13;;;22.20;99.90;;;;;;5270594;28;20024;-73
2023/08/31 00:28:04;;;;;;;17.13;15.30;;;22.00;99.90;;;;;;5270578;28;20509;-74
2023/08/31 00:30:35;;;;;;;19.58;17.42;;;22.10;99.90;;;;;;5270495;28;20120;-70
2023/08/31 00:33:06;;;;;;;17.92;15.77;;;22.00;99.90;;;;;;5271003;28;20624;-74
2023/08/31 00:35:37;;;;;;;18.85;16.85;;;22.00;99.90;;;;;;5253342;28;20472;-72
2023/08/31 00:38:08;;;;;;;19.48;17.70;;;22.20;99.90;;;;;;5253286;28;20371;-74
2023/08/31 00:40:42;;;;;;;18.23;16.33;;;22.00;99.90;;;;;;5271569;28;20032;-72
2023/08/31 00:43:17;;;;;;;19.05;17.17;;;21.90;99.90;;;;;;5271577;28;20020;-75
2023/08/31 00:45:56;;;;;;;18.40;16.80;;;21.90;99.90;;;;;;5271467;28;20028;-73
2023/08/31 00:48:27;;;;;;;18.83;17.20;;;21.80;99.90;;;;;;5271622;28;20754;-75
2023/08/31 00:50:58;;;;;;;18.20;16.60;;;21.90;99.90;;;;;;5271265;28;20043;-71
2023/08/31 00:53:30;;;;;;;19.02;17.10;;;21.90;99.90;;;;;;5271219;28;20386;-74
2023/08/31 00:56:02;;;;;;;16.08;14.48;;;21.90;99.90;;;;;;5271166;28;20525;-74
2023/08/31 00:58:32;;;;;;;16.27;14.77;;;21.90;99.90;;;;;;5271182;28;20020;-74
2023/08/31 01:01:12;;;;;;;15.00;13.50;;;21.80;99.90;;;;;;5271150;28;20028;-74
2023/08/31 01:03:55;;;;;;;15.00;13.45;;;21.70;99.90;;;;;;5270942;28;20036;-74
2023/08/31 01:06:59;;;;;;;16.30;13.18;;;21.80;99.90;;;;;;5271060;28;20024;-74
2023/08/31 01:10:01;;;;;;;15.55;13.93;;;21.80;99.90;;;;;;5271301;28;20094;-72
2023/08/31 01:12:49;;;;;;;15.15;13.45;;;21.60;99.90;;;;;;5271032;28;20490;-73
2023/08/31 01:15:21;;;;;;;15.43;13.40;;;21.70;99.90;;;;;;5270090;28;20032;-74
2023/08/31 01:17:55;;;;;;;14.57;13.13;;;21.80;99.90;;;;;;5252784;28;20376;-73
2023/08/31 01:20:42;;;;;;;14.05;12.65;;;21.70;99.90;;;;;;5270950;28;20032;-74
2023/08/31 01:23:20;;;;;;;14.75;13.25;;;21.60;99.90;;;;;;5270540;28;20115;-76
2023/08/31 01:25:51;;;;;;;15.05;12.60;;;21.60;99.90;;;;;;5252594;28;20036;-73
2023/08/31 01:28:22;;;;;;;14.50;12.60;;;21.60;99.90;;;;;;5270905;28;20404;-75
2023/08/31 01:30:53;;;;;;;14.90;13.10;;;21.60;99.90;;;;;;5270648;28;20031;-74
2023/08/31 01:33:24;;;;;;;13.90;12.52;;;21.60;99.90;;;;;;5252300;28;20887;-74
2023/08/31 01:35:57;;;;;;;14.38;12.77;;;21.60;99.90;;;;;;5270602;28;20032;-75
2023/08/31 01:38:31;;;;;;;16.50;12.93;;;21.50;99.90;;;;;;5270608;28;20030;-74
2023/08/31 01:41:17;;;;;;;13.45;11.75;;;21.50;99.90;;;;;;5270482;28;20028;-74
2023/08/31 01:43:50;;;;;;;13.57;12.18;;;21.40;99.90;;;;;;5252346;28;20020;-75
2023/08/31 01:46:21;;;;;;;15.43;12.63;;;21.50;99.90;;;;;;5270440;28;20097;-74
2023/08/31 01:49:00;;;;;;;16.08;11.95;;;21.50;99.90;;;;;;5270223;28;20023;-76
2023/08/31 01:51:34;;;;;;;13.48;11.52;;;21.40;99.90;;;;;;5251941;28;20364;-75
2023/08/31 01:54:05;;;;;;;13.63;12.32;;;21.40;99.90;;;;;;5270193;28;20042;-75
2023/08/31 01:56:36;;;;;;;13.73;12.40;;;21.50;99.90;;;;;;5270104;28;20032;-76
2023/08/31 01:59:07;;;;;;;15.75;14.15;;;21.50;99.90;;;;;;5270088;28;20091;-74
2023/08/31 02:01:37;;;;;;;16.17;14.77;;;21.30;99.90;;;;;;5269989;28;20028;-73
2023/08/31 02:04:08;;;;;;;16.55;14.93;;;21.50;99.90;;;;;;5250995;28;20726;-74
2023/08/31 02:06:39;;;;;;;16.42;15.02;;;21.40;99.90;;;;;;5269377;28;20028;-70
2023/08/31 02:09:10;;;;;;;16.33;14.95;;;21.50;99.90;;;;;;5269866;28;20027;-69
2023/08/31 02:11:41;;;;;;;15.95;14.65;;;21.20;99.90;;;;;;5269921;28;20028;-71
2023/08/31 02:14:12;;;;;;;15.63;13.23;;;21.40;99.90;;;;;;5269719;28;20365;-74
2023/08/31 02:16:43;;;;;;;13.30;12.00;;;21.30;99.90;;;;;;5269357;28;20051;-71
2023/08/31 02:19:14;;;;;;;14.55;11.65;;;21.30;99.90;;;;;;5269814;28;20418;-74
2023/08/31 02:21:44;;;;;;;15.85;10.98;;;21.40;99.90;;;;;;5269350;28;20024;-72
2023/08/31 02:24:15;;;;;;;12.82;10.90;;;21.30;99.90;;;;;;5251512;28;20353;-75
2023/08/31 02:26:48;;;;;;;11.55;10.35;;;21.30;99.90;;;;;;5269550;28;20072;-73
2023/08/31 02:29:19;;;;;;;13.38;10.07;;;21.40;99.90;;;;;;5269538;28;20463;-73
2023/08/31 02:31:49;;;;;;;11.18;9.65;;;21.40;99.90;;;;;;5269438;28;20030;-70
2023/08/31 02:34:20;;;;;;;11.30;10.10;;;21.40;99.90;;;;;;5268495;28;20036;-75
2023/08/31 02:36:51;;;;;;;12.23;11.05;;;21.30;99.90;;;;;;5269609;28;20059;-72
2023/08/31 02:39:22;;;;;;;12.52;11.00;;;21.00;99.90;;;;;;5269520;28;20028;-70
2023/08/31 02:41:53;;;;;;;13.13;10.45;;;21.10;99.90;;;;;;5269383;28;20096;-71
2023/08/31 02:44:24;;;;;;;11.95;10.75;;;21.20;99.90;;;;;;5269321;28;20618;-70
2023/08/31 02:46:55;;;;;;;10.82;9.80;;;21.30;99.90;;;;;;5269108;28;20012;-70
2023/08/31 02:49:26;;;;;;;11.57;9.15;;;21.20;99.90;;;;;;5268913;28;20035;-71
2023/08/31 02:51:57;;;;;;;10.35;8.30;;;21.20;99.90;;;;;;5268718;28;20005;-72
2023/08/31 02:54:28;;;;;;;11.00;8.82;;;21.30;99.90;;;;;;5268810;28;20035;-75
2023/08/31 02:56:59;;;;;;;12.40;8.15;;;21.30;99.90;;;;;;5267935;28;20062;-75
2023/08/31 02:59:29;;;;;;;8.63;7.60;;;21.40;99.90;;;;;;5250293;28;20166;-74
2023/08/31 03:02:00;;;;;;;10.32;8.60;;;21.40;99.90;;;;;;5267361;28;20115;-74
2023/08/31 03:04:31;;;;;;;11.02;8.55;;;21.40;99.90;;;;;;5267249;28;20403;-75
2023/08/31 03:07:04;;;;;;;12.65;9.05;;;21.40;99.90;;;;;;5267396;28;20026;-74
2023/08/31 03:09:34;;;;;;;10.90;9.85;;;21.20;99.90;;;;;;5267371;28;20383;-75
2023/08/31 03:12:05;;;;;;;12.55;11.25;;;21.20;99.90;;;;;;5267341;28;20016;-71
2023/08/31 03:14:36;;;;;;;15.88;11.40;;;21.20;99.90;;;;;;5267276;28;20042;-75
2023/08/31 03:17:07;;;;;;;12.30;11.00;;;21.20;99.90;;;;;;5250263;28;20493;-74
2023/08/31 03:19:38;;;;;;;11.73;10.57;;;21.00;99.90;;;;;;5268367;28;20503;-74
2023/08/31 03:22:08;;;;;;;13.30;11.77;;;21.10;99.90;;;;;;5248495;28;20024;-75
2023/08/31 03:24:39;;;;;;;13.60;11.15;;;21.00;99.90;;;;;;5268351;28;20024;-74
2023/08/31 03:27:10;;;;;;;12.57;11.27;;;20.90;99.90;;;;;;5268485;28;20031;-75
2023/08/31 03:29:41;;;;;;;15.57;11.40;;;21.00;99.90;;;;;;5268267;28;20026;-77
2023/08/31 03:32:11;;;;;;;16.90;10.93;;;20.90;99.90;;;;;;5268103;28;20024;-78
2023/08/31 03:34:42;;;;;;;13.10;11.80;;;20.80;99.90;;;;;;5249962;28;20372;-76
2023/08/31 03:37:13;;;;;;;15.60;11.48;;;20.80;99.90;;;;;;5268351;28;20506;-76
2023/08/31 03:39:46;;;;;;;13.40;11.82;;;20.80;99.90;;;;;;5267789;28;20066;-77
2023/08/31 03:42:17;;;;;;;13.00;11.70;;;20.80;99.90;;;;;;5266201;28;20020;-77
2023/08/31 03:57:31;;;;;;;11.65;10.45;;;20.80;99.90;;;;;;5306597;27;20479;-77
2023/08/31 04:00:08;;;;;;;11.93;10.90;;;20.50;99.90;;;;;;5307372;28;20028;-77
2023/08/31 04:02:42;;;;;;;12.85;10.45;;;20.60;99.90;;;;;;5307321;27;20031;-77
2023/08/31 04:05:15;;;;;;;13.57;11.55;;;20.80;99.90;;;;;;5307098;27;20080;-78
2023/08/31 04:07:45;;;;;;;11.75;10.40;;;20.80;99.90;;;;;;5291145;28;20028;-77
2023/08/31 04:10:16;;;;;;;12.23;10.95;;;20.80;99.90;;;;;;5285952;28;20016;-78
2023/08/31 04:12:47;;;;;;;13.00;11.73;;;21.10;99.90;;;;;;5285907;28;20051;-76
2023/08/31 04:15:18;;;;;;;13.02;11.80;;;21.40;99.90;;;;;;5285853;28;20375;-78
2023/08/31 04:17:51;;;;;;;11.73;10.73;;;21.60;99.90;;;;;;5269239;28;20027;-78
2023/08/31 04:20:22;;;;;;;13.30;10.25;;;21.90;99.90;;;;;;5264825;28;20013;-75
2023/08/31 04:22:53;;;;;;;12.27;10.32;;;22.00;99.90;;;;;;5279871;28;20020;-78
2023/08/31 04:25:24;;;;;;;10.98;9.98;;;21.80;99.90;;;;;;5285247;28;20062;-77
2023/08/31 04:27:56;;;;;;;13.43;9.90;;;21.70;99.90;;;;;;5285586;28;20614;-78
2023/08/31 04:30:27;;;;;;;11.77;9.85;;;21.70;99.90;;;;;;5285653;28;20050;-77
2023/08/31 04:32:58;;;;;;;10.23;9.18;;;21.80;99.90;;;;;;5285630;28;20024;-77
2023/08/31 04:35:30;;;;;;;11.52;9.57;;;21.70;99.90;;;;;;5267313;28;20027;-78
2023/08/31 04:38:01;;;;;;;10.52;9.60;;;21.80;99.90;;;;;;5285439;28;20024;-76
2023/08/31 04:40:31;;;;;;;10.65;8.82;;;21.80;99.90;;;;;;5285479;28;20034;-77
2023/08/31 04:43:03;;;;;;;11.65;9.75;;;21.90;99.90;;;;;;5285359;28;20044;-77
2023/08/31 04:45:34;;;;;;;17.05;10.25;;;22.00;99.90;;;;;;5285372;28;20089;-73
2023/08/31 04:48:05;;;;;;;12.60;10.35;;;22.00;99.90;;;;;;5284158;28;20737;-75
2023/08/31 04:50:36;;;;;;;17.27;9.63;;;22.00;99.90;;;;;;5265774;28;20031;-75
2023/08/31 04:53:07;;;;;;;12.57;9.93;;;22.10;99.90;;;;;;5283287;28;20954;-77
2023/08/31 04:55:38;;;;;;;11.35;9.75;;;22.20;99.90;;;;;;5282886;28;20459;-78
2023/08/31 04:58:09;;;;;;;16.10;8.95;;;22.20;99.90;;;;;;5270656;28;20030;-77
2023/08/31 05:00:40;;;;;;;12.68;9.82;;;22.40;99.90;;;;;;5268978;28;20046;-75
2023/08/31 05:03:11;;;;;;;11.35;9.50;;;22.50;99.90;;;;;;5251366;28;20028;-78
2023/08/31 05:05:42;;;;;;;13.30;9.30;;;22.60;99.90;;;;;;5269020;28;20032;-74
2023/08/31 05:08:12;;;;;;;13.68;8.98;;;22.70;99.90;;;;;;5270307;28;20107;-78
2023/08/31 05:10:45;;;;;;;10.65;8.45;;;22.80;99.90;;;;;;5270615;28;20024;-77
2023/08/31 05:13:15;;;;;;;11.88;8.05;;;23.00;99.90;;;;;;5270676;28;20031;-77
2023/08/31 05:15:46;;;;;;;11.93;8.05;;;23.10;99.90;;;;;;5269964;28;20020;-77
2023/08/31 05:18:17;;;;;;;8.77;7.70;;;23.20;99.90;;;;;;5270215;28;20016;-78
2023/08/31 05:20:48;;;;;;;13.15;7.82;;;23.20;99.90;;;;;;5268985;28;20418;-74
2023/08/31 05:23:20;;;;;;;9.88;7.80;;;23.40;99.90;;;;;;5268808;28;20032;-78
2023/08/31 05:25:51;;;;;;;11.07;7.68;;;23.60;99.90;;;;;;5268918;28;20055;-77
2023/08/31 05:28:22;;;;;;;10.18;7.97;;;23.70;99.90;;;;;;5263849;28;20032;-71
2023/08/31 05:30:55;;;;;;;10.95;7.93;;;23.80;99.90;;;;;;5268602;28;20024;-76
2023/08/31 05:33:28;;;;;;;11.57;7.90;;;24.00;99.90;;;;;;5268865;28;20067;-77
2023/08/31 05:36:00;;;;;;;13.07;7.45;;;24.00;99.90;;;;;;5269840;28;20028;-76
2023/08/31 05:38:31;;;;;;;12.82;8.13;;;24.20;99.90;;;;;;5269138;28;20028;-73
2023/08/31 05:41:09;;;;;;;11.57;8.23;;;24.30;99.90;;;;;;5268855;28;20073;-74
2023/08/31 05:43:40;;;;;;;10.43;8.43;;;24.40;99.90;;;;;;5268769;28;20027;-74
2023/08/31 05:46:11;;;;;;;12.98;8.60;;;24.50;99.90;;;;;;5268506;28;20051;-77
2023/08/31 05:48:42;;;;;;;12.63;8.05;;;24.60;99.90;;;;;;5268583;28;20020;-77
2023/08/31 05:51:13;;;;;;;10.02;7.03;;;24.70;99.90;;;;;;5268613;28;20028;-77
2023/08/31 05:53:44;;;;;;;9.35;7.28;;;24.80;99.90;;;;;;5268596;28;20111;-77
2023/08/31 05:56:14;;;;;;;8.60;6.63;;;24.90;99.90;;;;;;5269241;28;20056;-76
2023/08/31 05:58:45;;;;;;;9.85;6.30;;;25.00;99.90;;;;;;5268458;28;20089;-77
2023/08/31 06:01:16;;;;;;;14.23;6.97;;;25.10;99.90;;;;;;5268388;28;20051;-77
2023/08/31 06:03:48;;;;;;;7.93;6.97;;;25.20;99.90;;;;;;5268373;28;20020;-76
2023/08/31 06:06:19;;;;;;;11.30;6.72;;;25.30;99.90;;;;;;5268134;28;20028;-77
2023/08/31 06:08:50;;;;;;;12.23;7.85;;;25.40;99.90;;;;;;5267196;28;20031;-77
2023/08/31 06:11:21;;;;;;;15.80;7.40;;;25.50;99.90;;;;;;5268035;28;20483;-76
2023/08/31 06:13:52;;;;;;;13.85;7.63;;;25.40;99.90;;;;;;5269680;28;20055;-76
2023/08/31 06:16:23;;;;;;;15.20;7.78;;;25.50;99.90;;;;;;5268468;28;20407;-76
2023/08/31 06:18:54;;;;;;;13.45;7.13;;;25.70;99.90;;;;;;5268485;28;20032;-77
2023/08/31 06:21:25;;;;;;;11.88;7.97;;;25.90;99.90;;;;;;5268621;28;20363;-77
2023/08/31 06:23:56;;;;;;;9.95;6.70;;;26.00;99.90;;;;;;5268640;28;20055;-76
2023/08/31 06:26:26;;;;;;;12.52;7.15;;;26.10;99.90;;;;;;5268536;28;20044;-77
2023/08/31 06:28:57;;;;;;;9.13;6.18;;;26.20;99.90;;;;;;5268319;28;20106;-77
2023/08/31 06:31:28;;;;;;;12.68;7.10;;;26.40;99.90;;;;;;5268189;28;20510;-77
2023/08/31 06:33:58;;;;;;;12.15;7.35;;;26.60;99.90;;;;;;5268417;28;20070;-75
2023/08/31 06:36:30;;;;;;;13.00;7.95;;;26.60;99.90;;;;;;5268637;28;20429;-77
2023/08/31 06:39:00;;;;;;;13.23;10.20;;;26.60;99.90;;;;;;5268041;28;20546;-74
2023/08/31 06:41:31;;;;;;;11.82;10.40;;;26.70;99.90;;;;;;5268844;28;20038;-76
2023/08/31 06:44:05;;;;;;;13.48;10.40;;;26.90;99.90;;;;;;5268787;28;20421;-76
2023/08/31 06:46:37;;;;;;;11.55;10.23;;;26.90;99.90;;;;;;5267801;28;20483;-76
2023/08/31 06:49:09;;;;;;;11.13;10.00;;;27.00;99.90;;;;;;5268674;28;20020;-77
2023/08/31 06:51:40;;;;;;;15.55;11.07;;;27.10;99.90;;;;;;5268661;28;20028;-76
2023/08/31 06:54:11;;;;;;;13.43;11.38;;;27.10;99.90;;;;;;5268034;28;20514;-73
2023/08/31 06:56:42;;;;;;;13.05;9.68;;;27.20;99.90;;;;;;5266672;28;20491;-78
2023/08/31 06:59:13;;;;;;;13.00;9.73;;;27.30;99.90;;;;;;5267755;28;20039;-76
2023/08/31 07:01:43;;;;;;;13.30;9.00;;;27.30;99.90;;;;;;5267126;28;20016;-76
2023/08/31 07:04:14;;;;;;;10.52;8.80;;;27.30;99.90;;;;;;5267014;28;20020;-75
2023/08/31 07:06:45;;;;;;;17.45;9.25;;;27.50;99.90;;;;;;5266940;28;20032;-78
2023/08/31 07:09:16;;;;;;;16.25;8.85;;;27.50;99.90;;;;;;5267108;28;20121;-75
2023/08/31 07:11:46;;;;;;;13.05;9.32;;;27.40;99.90;;;;;;5267074;28;20061;-76
2023/08/31 07:14:17;;;;;;;11.75;8.93;;;27.50;99.90;;;;;;5267419;28;20017;-74
2023/08/31 07:16:48;;;;;;;9.82;8.32;;;27.50;99.90;;;;;;5267447;28;20028;-77
2023/08/31 07:19:19;;;;;;;15.90;9.52;;;27.40;99.90;;;;;;5267383;28;20060;-76
2023/08/31 07:21:50;;;;;;;12.27;8.63;;;27.50;99.90;;;;;;5268005;28;20024;-75
2023/08/31 07:24:21;;;;;;;12.98;8.48;;;27.50;99.90;;;;;;5268070;28;20019;-77
2023/08/31 07:26:52;;;;;;;13.27;8.45;;;27.60;99.90;;;;;;5249481;28;20494;-75
2023/08/31 07:29:23;;;;;;;10.15;7.82;;;27.60;99.90;;;;;;5267895;28;20463;-77
2023/08/31 07:31:54;;;;;;;9.02;7.45;;;27.60;99.90;;;;;;5267972;28;20031;-76
2023/08/31 07:34:26;;;;;;;9.35;7.95;;;27.70;99.90;;;;;;5267575;28;20031;-76
2023/08/31 07:36:58;;;;;;;10.52;7.65;;;27.70;99.90;;;;;;5267726;28;20032;-74
2023/08/31 07:39:30;;;;;;;11.70;8.27;;;27.80;99.90;;;;;;5264101;28;20013;-73
2023/08/31 07:42:02;;;;;;;11.75;7.40;;;27.90;99.90;;;;;;5245790;28;20136;-74
2023/08/31 07:44:44;;;;;;;13.35;7.55;;;27.90;99.90;;;;;;5267109;28;20021;-74
2023/08/31 07:47:21;;;;;;;11.27;7.97;;;28.00;99.90;;;;;;5266866;28;20032;-75
2023/08/31 07:49:53;;;;;;;11.65;8.07;;;28.00;99.90;;;;;;5266880;28;20035;-77
2023/08/31 07:52:26;;;;;;;15.20;7.55;;;28.10;99.90;;;;;;5267492;28;20451;-73
2023/08/31 07:55:02;;;;;;;13.13;7.03;;;28.20;99.90;;;;;;5267157;28;20024;-74
2023/08/31 07:57:35;;;;;;;9.35;7.03;;;28.30;99.90;;;;;;5225729;28;20036;-75
2023/08/31 08:00:07;;;;;;;14.88;7.57;;;28.30;99.90;;;;;;5225700;28;20036;-75
2023/08/31 08:02:43;;;;;;;12.65;7.28;;;28.50;99.90;;;;;;5225825;28;20548;-74
2023/08/31 08:05:14;;;;;;;11.75;8.23;;;28.50;99.90;;;;;;5225660;28;20025;-75
2023/08/31 08:07:50;;;;;;;13.95;9.10;;;28.60;99.90;;;;;;5225749;28;20086;-76
2023/08/31 08:10:22;;;;;;;14.50;8.30;;;28.60;99.90;;;;;;5225555;28;20025;-75
2023/08/31 08:12:56;;;;;;;11.98;7.93;;;28.60;99.90;;;;;;5225646;28;20092;-70
2023/08/31 08:15:27;;;;;;;13.40;8.88;;;28.90;99.90;;;;;;5225488;28;20025;-75
2023/08/31 08:17:59;;;;;;;14.18;8.45;;;28.90;99.90;;;;;;5224786;28;20021;-71
2023/08/31 08:20:36;;;;;;;12.10;9.65;;;28.90;99.90;;;;;;5225142;28;20112;-72
2023/08/31 08:23:07;;;;;;;10.05;8.20;;;28.90;99.90;;;;;;5225340;28;20023;-75
2023/08/31 08:25:37;;;;;;;18.88;9.13;;;29.00;99.90;;;;;;5224667;28;20037;-75
2023/08/31 08:28:08;;;;;;;12.85;10.25;;;29.00;99.90;;;;;;5224972;28;20135;-75
2023/08/31 08:30:39;;;;;;;17.55;11.27;;;29.20;99.90;;;;;;5224418;28;20043;-75
2023/08/31 08:33:10;;;;;;;13.98;9.98;;;29.20;99.90;;;;;;5227573;28;20478;-76
2023/08/31 08:35:41;;;;;;;15.13;10.70;;;29.30;99.90;;;;;;5229047;28;20028;-75
2023/08/31 08:38:12;;;;;;;14.63;11.18;;;29.40;99.90;;;;;;5229263;28;20090;-75
2023/08/31 08:40:43;;;;;;;12.18;9.45;;;29.30;99.90;;;;;;5229243;28;20530;-75
2023/08/31 08:43:14;;;;;;;16.52;11.23;;;29.50;99.90;;;;;;5229299;28;20071;-75
2023/08/31 08:45:47;;;;;;;13.35;11.77;;;29.40;99.90;;;;;;5229004;28;20033;-75
2023/08/31 08:48:21;;;;;;;15.75;13.65;;;29.70;99.90;;;;;;5228884;28;20052;-75
2023/08/31 08:50:53;;;;;;;16.98;15.38;;;29.60;99.90;;;;;;5229418;28;20029;-74
2023/08/31 08:53:24;;;;;;;18.23;16.15;;;29.70;99.90;;;;;;5229506;28;20059;-77
2023/08/31 08:55:55;;;;;;;18.85;16.98;;;29.80;99.90;;;;;;5236570;28;20045;-77
2023/08/31 08:58:25;;;;;;;19.17;13.52;;;29.80;99.90;;;;;;5243254;28;20471;-77
2023/08/31 09:00:56;;;;;;;14.15;11.43;;;30.00;99.90;;;;;;5252230;28;20020;-75
2023/08/31 09:03:27;;;;;;;18.88;12.10;;;30.20;99.90;;;;;;5270179;28;20016;-74
2023/08/31 09:06:01;;;;;;;14.55;10.45;;;30.30;99.90;;;;;;5270454;28;20042;-75
2023/08/31 09:08:32;;;;;;;14.43;11.93;;;30.30;99.90;;;;;;5270252;28;20048;-78
2023/08/31 09:11:03;;;;;;;13.90;10.45;;;30.60;99.90;;;;;;5270661;28;20070;-74
2023/08/31 09:13:34;;;;;;;15.10;10.15;;;30.60;99.90;;;;;;5270589;28;20596;-75
2023/08/31 09:16:04;;;;;;;15.82;9.70;;;30.70;99.90;;;;;;5270438;28;20139;-75
2023/08/31 09:18:35;;;;;;;16.17;10.13;;;30.60;99.90;;;;;;5270248;28;20139;-74
2023/08/31 09:21:06;;;;;;;14.82;9.38;;;30.80;99.90;;;;;;5269684;28;20024;-74
2023/08/31 09:23:37;;;;;;;16.25;9.00;;;31.00;99.90;;;;;;5269195;28;20016;-76
2023/08/31 09:26:08;;;;;;;13.60;9.10;;;30.90;99.90;;;;;;5269027;28;20039;-75
2023/08/31 09:28:41;;;;;;;17.52;8.07;;;31.00;99.90;;;;;;5269031;28;20062;-75
2023/08/31 09:31:12;;;;;;;11.57;8.70;;;31.00;99.90;;;;;;5268987;28;20042;-75
2023/08/31 09:33:52;;;;;;;17.98;7.90;;;31.30;99.90;;;;;;5269055;28;20016;-76
2023/08/31 09:36:28;;;;;;;18.98;10.27;;;31.20;99.90;;;;;;5269778;28;20394;-71
2023/08/31 09:38:59;;;;;;;15.88;11.02;;;31.10;99.90;;;;;;5270158;28;20394;-75
2023/08/31 09:41:30;;;;;;;15.30;8.98;;;31.40;99.90;;;;;;5270206;28;20020;-75
2023/08/31 09:44:17;;;;;;;15.68;9.48;;;31.60;99.90;;;;;;5269963;28;20020;-74
2023/08/31 09:46:48;;;;;;;14.63;7.82;;;31.60;99.90;;;;;;5269080;28;20024;-75
2023/08/31 09:49:21;;;;;;;15.90;8.10;;;31.40;99.90;;;;;;5269578;28;20032;-74
2023/08/31 09:51:52;;;;;;;14.40;8.52;;;31.50;99.90;;;;;;5268580;28;20032;-74
2023/08/31 09:54:26;;;;;;;14.60;8.82;;;31.40;99.90;;;;;;5268330;28;20056;-74
2023/08/31 09:57:00;;;;;;;14.40;8.20;;;31.50;99.90;;;;;;5268106;28;20399;-75
2023/08/31 09:59:31;;;;;;;14.02;8.18;;;31.80;99.90;;;;;;5268355;28;20031;-74
2023/08/31 10:02:03;;;;;;;14.50;8.93;;;31.80;99.90;;;;;;5268311;28;20024;-74
2023/08/31 10:04:36;;;;;;;13.52;7.78;;;32.10;99.90;;;;;;5268503;28;20024;-74
2023/08/31 10:07:11;;;;;;;12.45;8.35;;;32.20;99.90;;;;;;5269512;28;20459;-75
2023/08/31 10:09:43;;;;;;;13.85;8.55;;;32.10;99.90;;;;;;5269457;28;20028;-75
2023/08/31 10:12:14;;;;;;;14.50;8.23;;;32.00;99.90;;;;;;5269432;28;20379;-75
2023/08/31 10:14:46;;;;;;;15.13;7.68;;;32.10;99.90;;;;;;5269174;28;20414;-75
2023/08/31 10:17:17;;;;;;;11.55;8.35;;;32.30;99.90;;;;;;5268698;28;20024;-74
2023/08/31 10:19:48;;;;;;;15.68;8.30;;;32.40;99.90;;;;;;5268321;28;20428;-74
2023/08/31 10:22:19;;;;;;;13.75;8.23;;;32.50;99.90;;;;;;5267922;28;20047;-74
2023/08/31 10:24:58;;;;;;;13.18;8.00;;;32.60;99.90;;;;;;5267708;28;20040;-75
2023/08/31 10:27:39;;;;;;;;;;;32.70;99.90;;;;;;5268162;28;20040;-75
2023/08/31 10:30:28;;;;;;;23.33;8.13;;;32.80;99.90;;;;;;5267874;28;19904;-73
2023/08/31 10:33:20;;;;;;;12.35;8.82;;;32.60;99.90;;;;;;5268146;28;20123;-75
2023/08/31 10:35:53;;;;;;;11.85;8.40;;;32.70;99.90;;;;;;5247693;28;20078;-76
2023/08/31 10:38:31;;;;;;;18.30;10.00;;;32.60;99.90;;;;;;5246857;28;20103;-76
2023/08/31 10:41:06;;;;;;;12.48;10.77;;;32.70;99.90;;;;;;5246681;28;20066;-77
2023/08/31 10:43:52;;;;;;;12.05;9.98;;;32.20;99.90;;;;;;5255326;28;20558;-77
2023/08/31 10:46:31;;;;;;;15.70;8.50;;;32.10;99.90;;;;;;5266976;28;20526;-75
2023/08/31 10:49:11;;;;;;;9.93;7.63;;;32.20;99.90;;;;;;5266690;28;20024;-77
2023/08/31 10:51:48;;;;;;;14.13;7.85;;;32.10;99.90;;;;;;5267410;28;20088;-75
2023/08/31 10:54:18;;;;;;;14.02;7.65;;;32.00;99.90;;;;;;5268564;28;20417;-77
2023/08/31 10:57:04;;;;;;;11.85;7.95;;;32.00;99.90;;;;;;5267715;28;20052;-77
2023/08/31 10:59:44;;;;;;;11.65;7.03;;;31.70;99.90;;;;;;5268584;28;20024;-75
2023/08/31 11:02:37;;;;;;;10.25;7.20;;;31.80;99.90;;;;;;5268789;28;20016;-75
2023/08/31 11:05:15;;;;;;;7.57;6.53;;;31.80;99.90;;;;;;5268529;28;20527;-75
2023/08/31 11:07:52;;;;;;;9.45;7.18;;;32.20;99.90;;;;;;5268454;28;20047;-77
2023/08/31 11:10:26;;;;;;;12.73;7.22;;;32.40;99.90;;;;;;5268598;28;20026;-77
2023/08/31 11:12:58;;;;;;;8.60;6.93;;;32.80;99.90;;;;;;5268160;28;20036;-77
2023/08/31 11:15:31;;;;;;;9.27;6.65;;;33.10;95.10;;;;;;5268202;28;20016;-75
2023/08/31 11:18:03;;;;;;;9.98;6.63;;;33.00;98.50;;;;;;5268160;28;20064;-74
2023/08/31 11:20:34;;;;;;;10.65;9.38;;;32.40;99.90;;;;;;5268458;28;20103;-78
2023/08/31 11:23:06;;;;;;;15.13;7.85;;;33.10;99.90;;;;;;5268486;28;20720;-77
2023/08/31 11:25:37;;;;;;;13.20;7.07;;;32.10;99.90;;;;;;5267989;28;20390;-76
2023/08/31 11:28:08;;;;;;;16.80;7.95;;;32.00;99.90;;;;;;5268033;28;20042;-76
2023/08/31 11:30:40;;;;;;;10.82;7.63;;;32.20;99.90;;;;;;5267546;28;20016;-76
2023/08/31 11:33:11;;;;;;;8.93;7.53;;;32.60;99.90;;;;;;5267516;28;20028;-75
2023/08/31 11:35:44;;;;;;;18.00;9.07;;;32.80;99.90;;;;;;5267760;28;20166;-77
2023/08/31 11:38:16;;;;;;;10.48;7.80;;;32.90;99.90;;;;;;5267603;28;20028;-76
2023/08/31 11:40:47;;;;;;;8.65;6.13;;;32.70;97.10;;;;;;5267803;28;20415;-75
2023/08/31 11:43:19;;;;;;;9.63;6.85;;;32.60;94.10;;;;;;5266536;28;20107;-76
2023/08/31 11:45:50;;;;;;;7.68;6.57;;;32.50;92.20;;;;;;5266473;28;20365;-75
2023/08/31 11:48:22;;;;;;;10.13;7.03;;;32.80;97.20;;;;;;5266587;28;20024;-75
2023/08/31 11:50:53;;;;;;;16.23;7.50;;;32.60;99.90;;;;;;5266516;28;20436;-76
2023/08/31 11:53:24;;;;;;;11.15;6.95;;;32.50;99.90;;;;;;5266532;28;20028;-76
2023/08/31 11:55:55;;;;;;;8.80;6.80;;;32.30;99.90;;;;;;5266272;28;20043;-75
2023/08/31 11:58:27;;;;;;;11.90;7.47;;;32.30;99.90;;;;;;5267508;28;20073;-76
2023/08/31 12:00:58;;;;;;;10.55;7.53;;;32.30;99.90;;;;;;5267850;28;20016;-77
2023/08/31 12:03:44;;;;;;;11.35;7.50;;;32.30;99.90;;;;;;5267834;28;20051;-77
2023/08/31 12:06:17;;;;;;;8.10;6.47;;;32.50;99.90;;;;;;5267591;28;20044;-76
2023/08/31 12:08:49;;;;;;;8.60;6.40;;;32.60;99.90;;;;;;5271590;28;20122;-77
2023/08/31 12:11:20;;;;;;;7.45;6.65;;;32.50;93.50;;;;;;5272081;28;20055;-77
2023/08/31 12:13:51;;;;;;;9.63;6.70;;;32.60;92.20;;;;;;5271931;28;20036;-75
2023/08/31 12:16:22;;;;;;;10.00;7.65;;;32.70;91.30;;;;;;5271770;28;20025;-77
2023/08/31 12:18:53;;;;;;;11.88;10.68;;;32.80;89.20;;;;;;5271710;28;20042;-77
2023/08/31 12:21:24;;;;;;;13.35;10.18;;;32.70;85.10;;;;;;5271638;28;20024;-76
2023/08/31 12:23:56;;;;;;;14.18;12.13;;;32.70;87.40;;;;;;5271638;28;20032;-72
2023/08/31 12:26:28;;;;;;;11.77;10.55;;;32.90;94.10;;;;;;5271507;28;20628;-74
2023/08/31 12:28:58;;;;;;;12.82;11.82;;;32.80;86.10;;;;;;5271696;28;20333;-76
2023/08/31 12:31:29;;;;;;;17.10;12.60;;;32.60;85.90;;;;;;5253427;28;20027;-77
2023/08/31 12:34:04;;;;;;;18.30;11.70;;;32.70;91.70;;;;;;5270935;28;20020;-73
2023/08/31 12:36:37;;;;;;;16.23;9.50;;;32.60;96.80;;;;;;5270044;28;20379;-72
2023/08/31 12:39:11;;;;;;;11.65;9.02;;;32.50;99.90;;;;;;5268568;28;20379;-73
2023/08/31 12:41:42;;;;;;;11.13;8.85;;;32.30;99.90;;;;;;5268941;28;20028;-76
2023/08/31 12:44:13;;;;;;;14.25;8.65;;;32.20;99.90;;;;;;5269425;28;20494;-77
2023/08/31 12:46:44;;;;;;;11.85;9.05;;;32.20;99.90;;;;;;5269622;28;20032;-78
2023/08/31 12:49:15;;;;;;;14.65;8.38;;;32.50;99.90;;;;;;5269761;28;20376;-77
2023/08/31 12:51:46;;;;;;;11.85;9.00;;;32.60;99.90;;;;;;5269861;28;20055;-76
2023/08/31 12:54:17;;;;;;;11.15;8.70;;;32.50;99.90;;;;;;5270869;28;20017;-77
2023/08/31 12:56:48;;;;;;;11.98;9.05;;;32.60;99.90;;;;;;5270717;28;20130;-77
2023/08/31 12:59:19;;;;;;;11.20;8.82;;;32.50;99.90;;;;;;5270992;28;20107;-77
2023/08/31 13:01:50;;;;;;;10.35;8.85;;;32.50;99.90;;;;;;5270935;28;20042;-75
2023/08/31 13:04:21;;;;;;;16.27;9.10;;;32.40;99.90;;;;;;5270921;28;20499;-77
2023/08/31 13:06:52;;;;;;;11.40;8.68;;;32.50;99.90;;;;;;5270612;28;20039;-77
2023/08/31 13:09:23;;;;;;;13.95;8.65;;;32.70;99.90;;;;;;5270818;28;20486;-76
2023/08/31 13:11:54;;;;;;;14.25;8.93;;;32.70;99.90;;;;;;5252592;28;20039;-77